Time;durP1;ratioP1;P1;durP2;ratioP2;P2;SDS_P1;SDS_P2;PMS_P1;PMS_P2;Temp;Humidity;BMP_temperature;BMP_pressure;BME280_temperature;BME280_humidity;BME280_pressure;Samples;Min_cycle;Max_cycle;Signal;HPM_P1;HPM_P2
2024/01/31 00:01:34;;;;;;;16.87;10.37;;;5.70;94.60;;;;;;5078558;28;20650;-88
2024/01/31 00:04:00;;;;;;;17.80;9.93;;;5.70;94.60;;;;;;5078801;28;20234;-88
2024/01/31 00:06:25;;;;;;;19.17;10.60;;;5.60;94.50;;;;;;5078693;28;20283;-88
2024/01/31 00:08:51;;;;;;;11.73;10.57;;;5.60;94.40;;;;;;5096591;28;20232;-88
2024/01/31 00:11:17;;;;;;;20.03;12.17;;;5.60;94.40;;;;;;5078562;28;20199;-89
2024/01/31 00:13:42;;;;;;;15.33;11.07;;;5.60;94.40;;;;;;5097392;28;20175;-89
2024/01/31 00:16:08;;;;;;;25.30;13.43;;;5.60;94.40;;;;;;5082041;28;20696;-88
2024/01/31 00:18:34;;;;;;;25.97;12.90;;;5.60;94.30;;;;;;5082957;28;20548;-88
2024/01/31 00:21:00;;;;;;;18.87;13.97;;;5.60;94.20;;;;;;5100296;28;20228;-88
2024/01/31 00:23:25;;;;;;;17.43;13.00;;;5.60;94.10;;;;;;5081485;28;20525;-88
2024/01/31 00:25:51;;;;;;;24.67;13.40;;;5.50;93.90;;;;;;5081242;28;20193;-88
2024/01/31 00:28:16;;;;;;;21.87;13.37;;;5.50;93.70;;;;;;5081066;28;20183;-88
2024/01/31 00:30:42;;;;;;;18.17;13.20;;;5.50;93.60;;;;;;5078676;28;20209;-87
2024/01/31 00:33:08;;;;;;;19.73;7.73;;;5.60;93.50;;;;;;5079236;28;20170;-87
2024/01/31 00:35:33;;;;;;;18.13;7.63;;;5.60;93.40;;;;;;5080447;28;20632;-88
2024/01/31 00:38:00;;;;;;;8.93;6.30;;;5.60;93.40;;;;;;5082634;28;20194;-88
2024/01/31 00:40:25;;;;;;;17.47;7.00;;;5.60;93.20;;;;;;5082002;28;20212;-88
2024/01/31 00:42:51;;;;;;;14.93;7.77;;;5.60;93.20;;;;;;5080933;28;20175;-88
2024/01/31 00:45:17;;;;;;;13.43;7.33;;;5.50;93.00;;;;;;5099031;28;20201;-88
2024/01/31 00:47:43;;;;;;;13.30;7.60;;;5.50;92.90;;;;;;5081440;28;20218;-87
2024/01/31 00:50:10;;;;;;;7.93;7.17;;;5.50;92.90;;;;;;5097137;28;20202;-86
2024/01/31 00:52:36;;;;;;;11.43;7.77;;;5.50;92.60;;;;;;5096157;28;20704;-86
2024/01/31 00:55:02;;;;;;;10.87;6.93;;;5.50;92.40;;;;;;5077924;28;20170;-86
2024/01/31 00:57:27;;;;;;;9.63;7.27;;;5.50;92.40;;;;;;5078175;28;20244;-87
2024/01/31 00:59:53;;;;;;;14.63;7.97;;;5.40;92.30;;;;;;5077963;28;20178;-87
2024/01/31 01:02:18;;;;;;;10.40;7.90;;;5.40;92.20;;;;;;5078900;28;20573;-86
2024/01/31 01:04:44;;;;;;;9.20;7.97;;;5.40;92.10;;;;;;5078012;28;20195;-87
2024/01/31 01:07:09;;;;;;;14.27;7.63;;;5.40;92.10;;;;;;5077889;28;20198;-87
2024/01/31 01:09:35;;;;;;;10.07;7.50;;;5.40;92.00;;;;;;5095972;28;20206;-86
2024/01/31 01:12:01;;;;;;;9.67;7.40;;;5.40;92.00;;;;;;5077603;28;20227;-86
2024/01/31 01:14:27;;;;;;;10.37;6.97;;;5.30;91.90;;;;;;5077685;28;20171;-86
2024/01/31 01:16:53;;;;;;;6.67;6.17;;;5.30;92.00;;;;;;5077304;28;20700;-86
2024/01/31 01:19:18;;;;;;;9.93;6.73;;;5.30;92.00;;;;;;5077498;28;20189;-86
2024/01/31 01:21:44;;;;;;;8.00;6.73;;;5.30;92.20;;;;;;5077379;28;20547;-86
2024/01/31 01:24:09;;;;;;;9.17;6.53;;;5.20;92.30;;;;;;5095881;28;20166;-86
2024/01/31 01:26:41;;;;;;;7.27;5.57;;;5.10;92.50;;;;;;5077865;28;20229;-86
2024/01/31 01:29:07;;;;;;;6.57;5.80;;;5.10;92.50;;;;;;5077402;28;20178;-86
2024/01/31 01:31:32;;;;;;;6.37;5.77;;;5.10;92.60;;;;;;5077048;28;20210;-86
2024/01/31 01:34:01;;;;;;;7.03;6.30;;;5.00;92.70;;;;;;5077525;28;20181;-86
2024/01/31 01:36:26;;;;;;;9.77;6.00;;;5.00;92.80;;;;;;5076764;28;20218;-86
2024/01/31 01:38:52;;;;;;;15.47;6.40;;;5.00;92.90;;;;;;5077090;28;20178;-86
2024/01/31 01:41:17;;;;;;;8.27;6.53;;;5.00;93.00;;;;;;5095136;28;20182;-86
2024/01/31 01:43:43;;;;;;;9.17;5.90;;;5.00;93.00;;;;;;5095007;28;20664;-87
2024/01/31 01:46:21;;;;;;;11.10;5.53;;;5.00;93.00;;;;;;5076846;28;20627;-87
2024/01/31 01:48:50;;;;;;;11.20;6.20;;;5.00;93.00;;;;;;5095157;28;20693;-87
2024/01/31 01:51:17;;;;;;;8.43;5.33;;;5.00;93.10;;;;;;5076695;28;20206;-86
2024/01/31 01:53:45;;;;;;;10.10;5.83;;;5.00;93.20;;;;;;5076897;28;20269;-87
2024/01/31 01:56:13;;;;;;;13.60;6.23;;;5.00;93.20;;;;;;5094853;28;20216;-86
2024/01/31 01:58:40;;;;;;;7.63;5.30;;;5.00;93.30;;;;;;5095047;28;20174;-86
2024/01/31 02:01:07;;;;;;;7.63;5.77;;;4.90;93.40;;;;;;5094842;28;20175;-86
2024/01/31 02:03:34;;;;;;;13.33;6.97;;;4.80;93.40;;;;;;5094492;28;20197;-86
2024/01/31 02:06:01;;;;;;;7.73;6.00;;;4.80;93.40;;;;;;5077239;28;20195;-86
2024/01/31 02:08:27;;;;;;;8.13;5.80;;;4.80;93.30;;;;;;5094694;28;20588;-86
2024/01/31 02:10:53;;;;;;;8.20;5.73;;;4.80;93.20;;;;;;5076437;28;20268;-86
2024/01/31 02:13:18;;;;;;;8.20;6.10;;;4.80;93.20;;;;;;5076352;28;20178;-86
2024/01/31 02:15:54;;;;;;;7.80;5.47;;;4.70;93.30;;;;;;5077465;28;20209;-86
2024/01/31 02:18:24;;;;;;;15.23;5.57;;;4.70;93.30;;;;;;5076761;28;20173;-86
2024/01/31 02:20:50;;;;;;;11.67;5.97;;;4.80;93.40;;;;;;5076310;28;20202;-86
2024/01/31 02:23:15;;;;;;;8.73;6.33;;;4.80;93.40;;;;;;5076524;28;20178;-86
2024/01/31 02:25:41;;;;;;;18.20;5.87;;;4.80;93.50;;;;;;5094560;28;20178;-86
2024/01/31 02:28:07;;;;;;;12.13;5.97;;;4.70;93.40;;;;;;5076101;28;20206;-86
2024/01/31 02:30:33;;;;;;;18.60;7.00;;;4.70;93.40;;;;;;5076878;28;20212;-86
2024/01/31 02:32:58;;;;;;;12.80;6.27;;;4.60;93.40;;;;;;5094251;28;20180;-87
2024/01/31 02:35:24;;;;;;;17.93;6.93;;;4.60;93.40;;;;;;5094405;28;20216;-87
2024/01/31 02:37:50;;;;;;;17.23;7.37;;;4.60;93.50;;;;;;5093467;28;20203;-86
2024/01/31 02:40:15;;;;;;;10.83;6.10;;;4.60;93.50;;;;;;5075834;28;20185;-86
2024/01/31 02:42:42;;;;;;;11.17;6.77;;;4.60;93.50;;;;;;5075928;28;20557;-86
2024/01/31 02:45:08;;;;;;;15.53;6.20;;;4.60;93.50;;;;;;5076101;28;20206;-86
2024/01/31 02:47:33;;;;;;;15.73;7.97;;;4.60;93.50;;;;;;5093851;28;20619;-86
2024/01/31 02:50:03;;;;;;;12.50;6.00;;;4.60;93.50;;;;;;5075596;28;20229;-87
2024/01/31 02:52:28;;;;;;;18.87;13.03;;;4.60;93.50;;;;;;5093987;28;20170;-87
2024/01/31 02:54:54;;;;;;;15.93;13.63;;;4.60;93.60;;;;;;5075847;28;20669;-86
2024/01/31 02:57:20;;;;;;;16.70;13.37;;;4.60;93.60;;;;;;5093854;28;20197;-87
2024/01/31 02:59:45;;;;;;;15.97;14.30;;;4.60;93.50;;;;;;5075719;28;20181;-86
2024/01/31 03:02:13;;;;;;;21.23;14.60;;;4.60;93.50;;;;;;5075748;28;20181;-87
2024/01/31 03:04:39;;;;;;;20.27;14.23;;;4.60;93.40;;;;;;5075484;28;20661;-86
2024/01/31 03:07:05;;;;;;;18.43;14.13;;;4.60;93.30;;;;;;5075626;28;20216;-86
2024/01/31 03:09:30;;;;;;;22.37;14.03;;;4.60;93.30;;;;;;5075669;28;20189;-86
2024/01/31 03:11:56;;;;;;;20.03;12.80;;;4.60;93.30;;;;;;5093661;28;20170;-86
2024/01/31 03:14:21;;;;;;;19.83;12.60;;;4.60;93.20;;;;;;5075448;28;20235;-86
2024/01/31 03:16:47;;;;;;;21.20;14.23;;;4.70;93.20;;;;;;5093670;28;20242;-86
2024/01/31 03:19:13;;;;;;;13.93;7.33;;;4.60;93.30;;;;;;5075443;28;20620;-86
2024/01/31 03:21:38;;;;;;;11.90;7.30;;;4.60;93.30;;;;;;5075546;28;20205;-86
2024/01/31 03:24:05;;;;;;;15.17;7.57;;;4.60;93.30;;;;;;5093749;28;20182;-87
2024/01/31 03:26:30;;;;;;;13.13;8.30;;;4.60;93.30;;;;;;5075457;28;20204;-86
2024/01/31 03:28:56;;;;;;;16.33;8.50;;;4.60;93.30;;;;;;5093521;28;20177;-87
2024/01/31 03:31:21;;;;;;;13.13;7.40;;;4.60;93.30;;;;;;5075393;28;20204;-86
2024/01/31 03:33:47;;;;;;;21.67;8.03;;;4.60;93.30;;;;;;5075771;28;20173;-86
2024/01/31 03:36:12;;;;;;;15.53;8.80;;;4.60;93.20;;;;;;5093837;28;20182;-86
2024/01/31 03:38:39;;;;;;;13.43;7.70;;;4.60;93.20;;;;;;5075761;28;20267;-87
2024/01/31 03:41:06;;;;;;;16.23;8.63;;;4.60;93.20;;;;;;5093440;28;20171;-87
2024/01/31 03:43:31;;;;;;;16.93;8.37;;;4.70;93.20;;;;;;5076289;28;20272;-86
2024/01/31 03:45:57;;;;;;;17.33;8.40;;;4.60;93.10;;;;;;5075377;28;20261;-86
2024/01/31 03:48:22;;;;;;;19.93;8.37;;;4.60;93.10;;;;;;5075414;28;20188;-87
2024/01/31 03:50:48;;;;;;;15.67;8.10;;;4.60;93.00;;;;;;5097277;28;20275;-87
2024/01/31 03:53:13;;;;;;;14.80;8.23;;;4.60;93.00;;;;;;5079542;28;20178;-86
2024/01/31 03:55:40;;;;;;;16.00;9.43;;;4.60;92.90;;;;;;5079118;28;20589;-87
2024/01/31 03:58:05;;;;;;;26.33;8.90;;;4.60;92.90;;;;;;5079094;28;20258;-86
2024/01/31 04:00:31;;;;;;;15.33;8.37;;;4.60;92.80;;;;;;5078944;28;20174;-86
2024/01/31 04:02:56;;;;;;;16.47;9.20;;;4.70;92.80;;;;;;5078789;28;20277;-86
2024/01/31 04:05:22;;;;;;;15.70;9.43;;;4.60;92.70;;;;;;5078689;28;20224;-86
2024/01/31 04:07:48;;;;;;;17.57;10.03;;;4.60;92.40;;;;;;5078930;28;20202;-87
2024/01/31 04:10:14;;;;;;;20.43;10.13;;;4.60;91.70;;;;;;5078836;28;20620;-86
2024/01/31 04:12:39;;;;;;;16.87;10.70;;;4.70;91.30;;;;;;5097048;28;20220;-87
2024/01/31 04:15:05;;;;;;;18.70;10.67;;;4.70;90.80;;;;;;5078714;28;20212;-87
2024/01/31 04:17:31;;;;;;;19.37;11.97;;;4.70;90.50;;;;;;5078605;28;20697;-86
2024/01/31 04:19:56;;;;;;;19.50;13.03;;;4.60;90.30;;;;;;5078598;28;20173;-86
2024/01/31 04:22:22;;;;;;;20.90;13.50;;;4.60;88.90;;;;;;5096593;28;20668;-86
2024/01/31 04:24:47;;;;;;;15.97;13.60;;;4.70;88.20;;;;;;5078344;28;20185;-86
2024/01/31 04:27:13;;;;;;;18.67;13.73;;;4.70;88.20;;;;;;5078357;28;20233;-86
2024/01/31 04:29:39;;;;;;;17.03;14.47;;;4.70;87.80;;;;;;5096452;28;20290;-87
2024/01/31 04:32:06;;;;;;;18.70;15.50;;;4.70;87.50;;;;;;5096430;28;20261;-86
2024/01/31 04:34:31;;;;;;;16.03;14.03;;;4.70;86.90;;;;;;5078297;28;20193;-87
2024/01/31 04:36:57;;;;;;;18.10;16.33;;;4.70;86.80;;;;;;5096431;28;20221;-86
2024/01/31 04:39:22;;;;;;;20.87;16.63;;;4.80;85.00;;;;;;5078097;28;20182;-86
2024/01/31 04:41:48;;;;;;;19.73;16.77;;;4.80;85.60;;;;;;5078319;28;20193;-86
2024/01/31 04:44:13;;;;;;;23.47;15.23;;;4.80;85.40;;;;;;5078194;28;20175;-86
2024/01/31 04:46:39;;;;;;;18.30;16.00;;;4.80;85.80;;;;;;5078118;28;20200;-86
2024/01/31 04:49:05;;;;;;;17.87;15.53;;;4.70;85.80;;;;;;5077984;28;20664;-86
2024/01/31 04:51:31;;;;;;;17.00;15.33;;;4.70;86.20;;;;;;5077955;28;20223;-86
2024/01/31 04:53:57;;;;;;;18.43;16.53;;;4.70;86.20;;;;;;5077989;28;20170;-86
2024/01/31 04:56:22;;;;;;;19.30;16.37;;;4.80;85.10;;;;;;5077916;28;20197;-86
2024/01/31 04:58:48;;;;;;;17.73;15.90;;;4.80;84.70;;;;;;5077992;28;20174;-86
2024/01/31 05:01:13;;;;;;;16.97;15.20;;;4.80;85.20;;;;;;5077147;28;20170;-87
2024/01/31 05:03:39;;;;;;;18.37;15.53;;;4.70;85.70;;;;;;5078011;28;20194;-86
2024/01/31 05:06:04;;;;;;;19.90;15.80;;;4.70;85.90;;;;;;5077703;28;20170;-87
2024/01/31 05:08:30;;;;;;;17.60;15.90;;;4.70;86.00;;;;;;5077506;28;20577;-87
2024/01/31 05:10:55;;;;;;;19.73;16.90;;;4.70;85.90;;;;;;5077675;28;20208;-87
2024/01/31 05:13:21;;;;;;;18.27;16.37;;;4.70;86.20;;;;;;5077578;28;20171;-87
2024/01/31 05:15:47;;;;;;;20.27;16.27;;;4.60;86.30;;;;;;5077717;28;20186;-86
2024/01/31 05:18:12;;;;;;;20.30;18.30;;;4.60;86.40;;;;;;5077566;28;20197;-87
2024/01/31 05:20:38;;;;;;;19.43;17.63;;;4.60;86.30;;;;;;5077476;28;20185;-86
2024/01/31 05:23:04;;;;;;;27.03;18.60;;;4.70;85.90;;;;;;5095545;28;20167;-87
2024/01/31 05:25:29;;;;;;;20.43;16.40;;;4.60;86.20;;;;;;5077435;28;20178;-86
2024/01/31 05:27:55;;;;;;;18.97;16.23;;;4.60;86.50;;;;;;5095273;28;20768;-86
2024/01/31 05:30:20;;;;;;;18.57;16.63;;;4.60;86.40;;;;;;5095231;28;20193;-86
2024/01/31 05:32:46;;;;;;;36.03;33.10;;;4.60;86.40;;;;;;5077110;28;20642;-86
2024/01/31 05:35:12;;;;;;;36.93;33.73;;;4.60;86.30;;;;;;5077104;28;20641;-86
2024/01/31 05:37:38;;;;;;;37.47;34.43;;;4.60;86.40;;;;;;5094892;28;20220;-86
2024/01/31 05:40:04;;;;;;;35.20;32.07;;;4.70;86.40;;;;;;5077087;28;20551;-86
2024/01/31 05:42:30;;;;;;;37.77;34.63;;;4.60;86.30;;;;;;5094997;28;20249;-86
2024/01/31 05:44:56;;;;;;;38.23;35.03;;;4.60;86.30;;;;;;5076968;28;20205;-86
2024/01/31 05:47:22;;;;;;;39.30;35.40;;;4.60;86.00;;;;;;5095010;28;20182;-86
2024/01/31 05:49:48;;;;;;;34.90;31.77;;;4.70;85.70;;;;;;5076748;28;20208;-87
2024/01/31 05:52:13;;;;;;;37.23;33.90;;;4.60;85.60;;;;;;5077001;28;20638;-86
2024/01/31 05:54:39;;;;;;;37.77;34.33;;;4.60;85.60;;;;;;5076745;28;20178;-86
2024/01/31 05:57:06;;;;;;;37.13;33.93;;;4.60;85.60;;;;;;5076853;28;20186;-86
2024/01/31 05:59:31;;;;;;;39.20;35.77;;;4.60;85.70;;;;;;5094912;28;20166;-87
2024/01/31 06:01:57;;;;;;;36.67;33.40;;;4.70;85.20;;;;;;5076557;28;20668;-86
2024/01/31 06:04:23;;;;;;;33.83;30.90;;;4.80;84.90;;;;;;5076362;28;20232;-87
2024/01/31 06:06:48;;;;;;;37.77;34.53;;;4.80;84.80;;;;;;5094491;28;20193;-86
2024/01/31 06:09:14;;;;;;;34.63;31.50;;;4.70;85.20;;;;;;5094564;28;20252;-86
2024/01/31 06:11:39;;;;;;;28.13;25.43;;;4.70;85.70;;;;;;5076152;28;20206;-86
2024/01/31 06:14:06;;;;;;;26.30;23.97;;;4.70;85.90;;;;;;5075703;28;20177;-86
2024/01/31 06:16:32;;;;;;;25.27;23.00;;;4.70;85.50;;;;;;5076454;28;20661;-86
2024/01/31 06:18:59;;;;;;;22.83;20.70;;;4.70;85.60;;;;;;5077284;28;20638;-86
2024/01/31 06:21:25;;;;;;;24.50;21.77;;;4.70;85.70;;;;;;5076563;28;20216;-86
2024/01/31 06:23:51;;;;;;;24.70;22.67;;;4.70;85.90;;;;;;5076214;28;20566;-86
2024/01/31 06:26:16;;;;;;;15.50;13.90;;;4.60;86.00;;;;;;5094139;28;20574;-86
2024/01/31 06:28:42;;;;;;;18.67;13.40;;;4.70;86.00;;;;;;5076774;28;20181;-86
2024/01/31 06:31:16;;;;;;;15.00;13.63;;;4.60;86.20;;;;;;5094107;28;20204;-86
2024/01/31 06:33:42;;;;;;;;;;;4.70;86.00;;;;;;5076323;28;20546;-86
2024/01/31 06:36:08;;;;;;;;;;;4.70;86.00;;;;;;5076444;28;19911;-86
2024/01/31 06:38:33;;;;;;;;;;;4.80;85.50;;;;;;5094501;28;19998;-86
2024/01/31 06:40:58;;;;;;;;;;;4.80;84.80;;;;;;5076325;28;19904;-86
2024/01/31 06:43:27;;;;;;;;;;;4.80;85.00;;;;;;5076178;28;19911;-86
2024/01/31 06:45:53;;;;;;;;;;;4.80;85.20;;;;;;5075965;28;19959;-86
2024/01/31 06:48:19;;;;;;;;;;;4.70;85.50;;;;;;5094126;28;19904;-86
2024/01/31 06:50:44;;;;;;;;;;;4.70;85.70;;;;;;5076094;28;19912;-86
2024/01/31 06:53:10;;;;;;;;;;;4.70;85.50;;;;;;5076230;28;19911;-87
2024/01/31 06:55:35;;;;;;;;;;;4.70;84.80;;;;;;5076853;28;20003;-87
2024/01/31 06:58:01;;;;;;;;;;;4.70;85.00;;;;;;5094663;28;19911;-87
2024/01/31 07:00:26;;;;;;;;;;;4.70;85.20;;;;;;5094833;28;19904;-87
2024/01/31 07:02:53;;;;;;;;;;;4.70;85.30;;;;;;5076975;28;19904;-87
2024/01/31 07:05:18;;;;;;;;;;;4.70;85.30;;;;;;5076156;28;19912;-87
2024/01/31 07:07:44;;;;;;;;;;;4.70;85.60;;;;;;5076536;28;20283;-87
2024/01/31 07:10:09;;;;;;;;;;;4.60;85.80;;;;;;5076206;28;19907;-87
2024/01/31 07:12:35;;;;;;;;;;;4.60;85.80;;;;;;5094490;28;19911;-87
2024/01/31 07:15:00;;;;;;;;;;;4.60;85.80;;;;;;5076296;28;19910;-87
2024/01/31 07:17:26;;;;;;;;;;;4.60;86.00;;;;;;5076517;28;19904;-87
2024/01/31 07:19:51;;;;;;;;;;;4.60;85.90;;;;;;5076264;28;19904;-87
2024/01/31 07:22:17;;;;;;;;;;;4.60;85.90;;;;;;5076285;28;19954;-87
2024/01/31 07:24:43;;;;;;;;;;;4.60;85.90;;;;;;5075755;28;20287;-87
2024/01/31 07:27:09;;;;;;;;;;;4.70;85.60;;;;;;5076178;28;19956;-87
2024/01/31 07:29:34;;;;;;;;;;;4.70;85.60;;;;;;5094151;28;19959;-87
2024/01/31 07:32:00;;;;;;;;;;;4.70;85.90;;;;;;5094239;28;19904;-87
2024/01/31 07:34:25;;;;;;;;;;;4.70;86.10;;;;;;5076105;28;19904;-87
2024/01/31 07:36:50;;;;;;;;;;;4.70;86.30;;;;;;5094258;28;19910;-87
2024/01/31 07:39:16;;;;;;;;;;;4.70;86.10;;;;;;5094172;28;19943;-87
2024/01/31 07:41:44;;;;;;;;;;;4.70;86.20;;;;;;5077322;28;19908;-87
2024/01/31 07:44:10;;;;;;;;;;;4.60;86.40;;;;;;5076078;28;19909;-87
2024/01/31 07:46:35;;;;;;;;;;;4.70;86.30;;;;;;5076186;28;19928;-87
2024/01/31 07:49:01;;;;;;;;;;;4.60;86.60;;;;;;5076404;28;19912;-87
2024/01/31 07:51:26;;;;;;;;;;;4.70;86.50;;;;;;5076064;28;19908;-87
2024/01/31 07:53:52;;;;;;;;;;;4.60;86.60;;;;;;5076002;28;20002;-87
2024/01/31 07:56:17;;;;;;;15.40;13.73;;;4.70;86.40;;;;;;5093863;28;19912;-87
2024/01/31 07:58:43;;;;;;;16.87;15.33;;;4.70;86.20;;;;;;5075910;28;20174;-87
2024/01/31 08:01:08;;;;;;;21.03;14.53;;;4.70;86.10;;;;;;5076680;28;20591;-87
2024/01/31 08:03:39;;;;;;;15.23;13.83;;;4.70;86.30;;;;;;5093851;28;20652;-87
2024/01/31 08:06:05;;;;;;;25.40;15.33;;;4.70;86.30;;;;;;5076099;28;20196;-87
2024/01/31 08:08:31;;;;;;;16.47;14.50;;;4.80;85.70;;;;;;5093660;28;20224;-87
2024/01/31 08:10:58;;;;;;;29.83;17.23;;;4.80;85.70;;;;;;5075585;28;20194;-87
2024/01/31 08:13:25;;;;;;;31.77;16.87;;;4.80;84.80;;;;;;5075857;28;20174;-87
2024/01/31 08:15:50;;;;;;;22.93;16.13;;;4.90;84.20;;;;;;5093936;28;20166;-87
2024/01/31 08:18:16;;;;;;;22.43;16.83;;;4.90;84.10;;;;;;5075213;28;20188;-88
2024/01/31 08:20:41;;;;;;;20.80;17.30;;;4.90;84.30;;;;;;5074861;28;20186;-87
2024/01/31 08:23:07;;;;;;;21.33;16.20;;;4.90;84.50;;;;;;5093181;28;20167;-87
2024/01/31 08:25:32;;;;;;;18.53;16.63;;;4.90;84.50;;;;;;5093358;28;20650;-87
2024/01/31 08:27:58;;;;;;;24.30;16.87;;;4.90;84.40;;;;;;5093782;28;20646;-88
2024/01/31 08:30:23;;;;;;;;;;;5.00;84.50;;;;;;5093730;28;20478;-88
2024/01/31 08:32:49;;;;;;;20.90;17.03;;;5.00;84.40;;;;;;5075686;28;19904;-87
2024/01/31 08:35:15;;;;;;;24.90;16.50;;;5.00;83.90;;;;;;5075643;28;20543;-87
2024/01/31 08:37:40;;;;;;;22.07;17.20;;;5.10;84.20;;;;;;5079014;28;20194;-87
2024/01/31 08:40:08;;;;;;;19.57;17.27;;;5.10;84.00;;;;;;5080015;28;20177;-87
2024/01/31 08:42:36;;;;;;;19.10;17.17;;;5.10;83.70;;;;;;5079828;28;20193;-87
2024/01/31 08:45:02;;;;;;;19.37;17.50;;;5.00;83.70;;;;;;5098222;28;20515;-87
2024/01/31 08:47:27;;;;;;;23.70;17.60;;;4.90;83.80;;;;;;5079642;28;20201;-87
2024/01/31 08:49:53;;;;;;;19.17;17.27;;;4.90;83.80;;;;;;5079913;28;20198;-87
2024/01/31 08:52:18;;;;;;;21.37;17.03;;;4.90;84.00;;;;;;5097948;28;20220;-87
2024/01/31 08:54:44;;;;;;;21.27;16.60;;;5.00;84.10;;;;;;5079738;28;20192;-87
2024/01/31 08:57:10;;;;;;;19.43;17.37;;;5.00;84.20;;;;;;5079243;28;20190;-87
2024/01/31 08:59:36;;;;;;;20.13;17.00;;;5.10;83.60;;;;;;5079066;28;20188;-87
2024/01/31 09:02:03;;;;;;;18.50;16.60;;;5.20;83.60;;;;;;5079517;28;20174;-87
2024/01/31 09:04:29;;;;;;;30.17;27.10;;;5.20;83.50;;;;;;5079198;28;20190;-87
2024/01/31 09:06:54;;;;;;;31.53;28.73;;;5.30;83.10;;;;;;5079585;28;20202;-87
2024/01/31 09:09:20;;;;;;;34.80;31.60;;;5.40;82.90;;;;;;5078931;28;20180;-86
2024/01/31 09:11:46;;;;;;;29.80;27.20;;;5.50;82.90;;;;;;5079490;28;20201;-87
2024/01/31 09:14:12;;;;;;;30.80;27.47;;;5.50;82.70;;;;;;5078744;28;19904;-87
2024/01/31 09:16:38;;;;;;;30.60;28.07;;;5.40;82.90;;;;;;5078451;28;20198;-86
2024/01/31 09:19:03;;;;;;;29.63;26.13;;;5.40;82.90;;;;;;5078636;28;20236;-86
2024/01/31 09:21:29;;;;;;;30.53;28.03;;;5.40;83.10;;;;;;5078837;28;20182;-86
2024/01/31 09:23:55;;;;;;;32.83;28.00;;;5.40;83.40;;;;;;5078290;28;20216;-87
2024/01/31 09:26:20;;;;;;;31.50;28.83;;;5.40;83.70;;;;;;5077646;28;20413;-87
2024/01/31 09:28:46;;;;;;;28.70;26.07;;;5.40;83.60;;;;;;5078089;28;20178;-87
2024/01/31 09:31:22;;;;;;;30.27;27.57;;;5.40;83.60;;;;;;5078269;28;20228;-87
2024/01/31 09:33:53;;;;;;;20.57;18.80;;;5.40;83.30;;;;;;5078003;28;20166;-87
2024/01/31 09:36:19;;;;;;;18.43;16.70;;;5.40;83.60;;;;;;5077866;28;20194;-87
2024/01/31 09:38:48;;;;;;;20.07;18.20;;;5.40;82.50;;;;;;5096172;28;20176;-87
2024/01/31 09:41:15;;;;;;;35.67;32.07;;;5.30;81.20;;;;;;5077962;28;20186;-87
2024/01/31 09:43:41;;;;;;;33.67;30.53;;;5.30;81.60;;;;;;5095771;28;20167;-87
2024/01/31 09:46:07;;;;;;;32.67;29.60;;;5.40;82.20;;;;;;5077712;28;20197;-87
2024/01/31 09:48:33;;;;;;;32.43;29.83;;;5.40;82.30;;;;;;5077342;28;20181;-87
2024/01/31 09:51:00;;;;;;;20.93;18.77;;;5.40;81.30;;;;;;5095768;28;20223;-87
2024/01/31 09:53:27;;;;;;;20.57;18.70;;;5.50;80.70;;;;;;5078223;28;20218;-87
2024/01/31 09:55:55;;;;;;;20.13;18.13;;;5.40;80.40;;;;;;5078599;28;20178;-87
2024/01/31 09:58:21;;;;;;;21.40;17.77;;;5.50;81.00;;;;;;5078853;28;20198;-87
2024/01/31 10:00:50;;;;;;;20.27;18.43;;;5.50;81.70;;;;;;5077734;28;20236;-87
2024/01/31 10:03:15;;;;;;;21.77;19.50;;;5.50;81.20;;;;;;5077919;28;20311;-87
2024/01/31 10:05:41;;;;;;;19.47;17.87;;;5.40;80.60;;;;;;5096375;28;20193;-87
2024/01/31 10:08:07;;;;;;;22.87;18.20;;;5.50;80.80;;;;;;5077897;28;20713;-87
2024/01/31 10:10:32;;;;;;;20.13;18.07;;;5.40;81.40;;;;;;5077343;28;20194;-87
2024/01/31 10:12:58;;;;;;;19.23;17.20;;;5.50;81.80;;;;;;5077402;28;20199;-87
2024/01/31 10:15:23;;;;;;;20.73;17.70;;;5.50;82.20;;;;;;5078074;28;20179;-87
2024/01/31 10:17:48;;;;;;;;;;;5.50;80.80;;;;;;5094902;28;20024;-87
2024/01/31 10:20:14;;;;;;;;;;;5.50;80.30;;;;;;5095780;28;19904;-87
2024/01/31 10:22:40;;;;;;;;;;;5.50;79.90;;;;;;5077976;28;19904;-87
2024/01/31 10:25:06;;;;;;;;;;;5.50;80.00;;;;;;5078928;28;20364;-87
2024/01/31 10:27:35;;;;;;;;;;;5.40;80.50;;;;;;5079501;28;19910;-86
2024/01/31 10:30:02;;;;;;;;;;;5.30;79.70;;;;;;5079102;28;19908;-87
2024/01/31 10:32:29;;;;;;;;;;;5.40;79.70;;;;;;5097366;28;19904;-87
2024/01/31 10:34:56;;;;;;;21.30;19.30;;;5.50;80.50;;;;;;5078435;28;19904;-87
2024/01/31 10:37:26;;;;;;;21.53;19.37;;;5.40;80.30;;;;;;5096869;28;20277;-87
2024/01/31 10:39:53;;;;;;;22.10;20.10;;;5.40;80.00;;;;;;5096276;28;20176;-87
2024/01/31 10:42:21;;;;;;;22.10;19.83;;;5.40;79.90;;;;;;5078446;28;20167;-87
2024/01/31 10:44:47;;;;;;;21.20;19.67;;;5.50;79.80;;;;;;5096263;28;20170;-87
2024/01/31 10:47:13;;;;;;;21.80;19.80;;;5.40;79.00;;;;;;5078269;28;20576;-87
2024/01/31 10:49:38;;;;;;;21.57;19.97;;;5.40;79.70;;;;;;5077265;28;20178;-86
2024/01/31 10:52:07;;;;;;;24.30;21.77;;;5.30;79.00;;;;;;5077449;28;20174;-87
2024/01/31 10:54:37;;;;;;;20.33;18.80;;;5.40;79.70;;;;;;5077564;28;20174;-86
2024/01/31 10:57:06;;;;;;;20.57;18.80;;;5.30;79.90;;;;;;5077916;28;20186;-87
2024/01/31 10:59:37;;;;;;;17.77;16.67;;;5.30;80.40;;;;;;5076846;28;20660;-87
2024/01/31 11:02:03;;;;;;;18.67;17.37;;;5.30;80.60;;;;;;5077209;28;20209;-88
2024/01/31 11:04:29;;;;;;;19.83;18.10;;;5.30;80.30;;;;;;5077783;28;20190;-87
2024/01/31 11:06:59;;;;;;;19.10;17.80;;;5.30;80.50;;;;;;5077289;28;20204;-87
2024/01/31 11:09:25;;;;;;;20.60;18.63;;;5.30;81.00;;;;;;5094647;28;20162;-87
2024/01/31 11:12:11;;;;;;;20.30;18.50;;;5.30;80.60;;;;;;5077558;28;20227;-87
2024/01/31 11:14:40;;;;;;;21.83;19.60;;;5.30;80.70;;;;;;5077005;28;20162;-87
2024/01/31 11:17:12;;;;;;;21.83;19.73;;;5.30;80.60;;;;;;5076689;28;20543;-88
2024/01/31 11:19:52;;;;;;;20.90;19.30;;;5.30;79.50;;;;;;5077520;28;20174;-88
2024/01/31 11:22:22;;;;;;;21.30;19.17;;;5.30;80.60;;;;;;5077059;28;20687;-88
2024/01/31 11:24:49;;;;;;;21.97;19.77;;;5.30;80.00;;;;;;5076490;28;20730;-87
2024/01/31 11:27:16;;;;;;;20.97;19.47;;;5.30;80.10;;;;;;5076023;28;20281;-87
2024/01/31 11:29:44;;;;;;;20.93;19.03;;;5.20;80.10;;;;;;5094245;28;20178;-87
2024/01/31 11:32:10;;;;;;;20.27;18.60;;;5.20;80.70;;;;;;5076346;28;20178;-87
2024/01/31 11:34:40;;;;;;;19.40;17.90;;;5.20;80.50;;;;;;5075723;28;20239;-87
2024/01/31 11:37:05;;;;;;;18.70;17.40;;;5.20;80.50;;;;;;5076055;28;20613;-87
2024/01/31 11:39:31;;;;;;;20.13;18.03;;;5.20;80.80;;;;;;5075649;28;20182;-87
2024/01/31 11:41:57;;;;;;;19.67;17.93;;;5.20;80.60;;;;;;5093918;28;20545;-88
2024/01/31 11:44:22;;;;;;;19.73;18.00;;;5.20;81.30;;;;;;5076102;28;20189;-87
2024/01/31 11:46:50;;;;;;;21.37;19.17;;;5.20;81.00;;;;;;5094456;28;20202;-87
2024/01/31 11:49:16;;;;;;;20.60;18.80;;;5.10;80.80;;;;;;5076035;28;20185;-87
2024/01/31 11:51:42;;;;;;;21.10;19.03;;;5.10;80.20;;;;;;5075836;28;20202;-87
2024/01/31 11:54:08;;;;;;;20.63;18.93;;;5.20;79.90;;;;;;5075631;28;20559;-87
2024/01/31 11:56:34;;;;;;;21.17;19.40;;;5.20;80.20;;;;;;5075735;28;20204;-87
2024/01/31 11:59:00;;;;;;;21.07;19.20;;;5.20;79.90;;;;;;5075352;28;20175;-87
2024/01/31 12:01:27;;;;;;;20.27;18.40;;;5.20;80.40;;;;;;5093476;28;20178;-87
2024/01/31 12:03:53;;;;;;;21.23;19.43;;;5.20;80.70;;;;;;5075518;28;20198;-87
2024/01/31 12:06:18;;;;;;;21.10;19.47;;;5.20;80.50;;;;;;5093338;28;20276;-87
2024/01/31 12:08:48;;;;;;;20.77;19.20;;;5.10;79.90;;;;;;5074959;28;20235;-87
2024/01/31 12:11:17;;;;;;;21.17;19.40;;;5.20;80.30;;;;;;5096084;28;20254;-87
2024/01/31 12:13:46;;;;;;;20.97;19.07;;;5.20;80.10;;;;;;5079007;28;20174;-87
2024/01/31 12:16:12;;;;;;;21.20;19.70;;;5.20;80.70;;;;;;5078936;28;20714;-87
2024/01/31 12:18:39;;;;;;;19.77;18.30;;;5.20;80.40;;;;;;5078893;28;20224;-87
2024/01/31 12:21:06;;;;;;;20.23;18.87;;;5.20;80.90;;;;;;5078777;28;20213;-87
2024/01/31 12:23:32;;;;;;;21.93;19.80;;;5.20;80.20;;;;;;5079404;28;20178;-87
2024/01/31 12:25:58;;;;;;;20.53;18.93;;;5.20;79.60;;;;;;5079668;28;20181;-87
2024/01/31 12:28:25;;;;;;;20.03;18.53;;;5.20;80.20;;;;;;5079756;28;20213;-87
2024/01/31 12:30:51;;;;;;;19.23;17.97;;;5.20;80.50;;;;;;5097203;28;20675;-87
2024/01/31 12:33:20;;;;;;;20.87;18.97;;;5.30;80.80;;;;;;5080032;28;20666;-87
2024/01/31 12:35:46;;;;;;;20.77;19.17;;;5.20;80.80;;;;;;5079721;28;20314;-87
2024/01/31 12:38:12;;;;;;;19.63;18.20;;;5.20;80.30;;;;;;5097747;28;20236;-89
2024/01/31 12:40:38;;;;;;;20.00;18.57;;;5.20;80.40;;;;;;5079898;28;20560;-87
2024/01/31 12:43:04;;;;;;;33.93;31.57;;;5.30;80.20;;;;;;5099047;28;20214;-87
2024/01/31 12:45:31;;;;;;;31.63;29.23;;;5.20;79.80;;;;;;5097868;28;20185;-87
2024/01/31 12:47:57;;;;;;;33.57;31.03;;;5.20;79.90;;;;;;5079216;28;20201;-87